sensor_id;sensor_type;location;lat;lon;timestamp;P1;durP1;ratioP1;P2;durP2;ratioP2
41885;SDS011;27567;43.084;25.616;2023-10-08T00:00:40;11.02;;;4.00;;
41885;SDS011;27567;43.084;25.616;2023-10-08T00:03:29;11.63;;;3.92;;
41885;SDS011;27567;43.084;25.616;2023-10-08T00:06:23;11.60;;;4.55;;
41885;SDS011;27567;43.084;25.616;2023-10-08T00:09:07;12.85;;;4.95;;
41885;SDS011;27567;43.084;25.616;2023-10-08T00:11:52;10.30;;;4.63;;
41885;SDS011;27567;43.084;25.616;2023-10-08T00:14:37;9.77;;;4.32;;
41885;SDS011;27567;43.084;25.616;2023-10-08T00:17:27;10.68;;;3.85;;
41885;SDS011;27567;43.084;25.616;2023-10-08T00:20:11;9.93;;;4.10;;
41885;SDS011;27567;43.084;25.616;2023-10-08T00:23:08;12.68;;;4.18;;
41885;SDS011;27567;43.084;25.616;2023-10-08T00:25:53;10.82;;;4.22;;
41885;SDS011;27567;43.084;25.616;2023-10-08T00:28:38;10.18;;;3.65;;
41885;SDS011;27567;43.084;25.616;2023-10-08T00:31:26;10.15;;;4.22;;
41885;SDS011;27567;43.084;25.616;2023-10-08T00:34:18;7.10;;;3.65;;
41885;SDS011;27567;43.084;25.616;2023-10-08T00:39:52;8.13;;;4.03;;
41885;SDS011;27567;43.084;25.616;2023-10-08T00:42:40;10.98;;;4.05;;
41885;SDS011;27567;43.084;25.616;2023-10-08T00:45:29;8.52;;;3.88;;
41885;SDS011;27567;43.084;25.616;2023-10-08T00:48:14;8.90;;;3.83;;
41885;SDS011;27567;43.084;25.616;2023-10-08T00:51:05;8.20;;;4.45;;
41885;SDS011;27567;43.084;25.616;2023-10-08T00:54:07;10.70;;;4.97;;
41885;SDS011;27567;43.084;25.616;2023-10-08T00:57:01;9.73;;;4.32;;
41885;SDS011;27567;43.084;25.616;2023-10-08T00:59:55;9.38;;;4.18;;
41885;SDS011;27567;43.084;25.616;2023-10-08T01:02:41;18.05;;;5.03;;
41885;SDS011;27567;43.084;25.616;2023-10-08T01:05:44;10.52;;;3.95;;
41885;SDS011;27567;43.084;25.616;2023-10-08T01:08:31;9.63;;;4.10;;
41885;SDS011;27567;43.084;25.616;2023-10-08T01:11:30;11.00;;;4.38;;
41885;SDS011;27567;43.084;25.616;2023-10-08T01:14:30;14.90;;;4.95;;
41885;SDS011;27567;43.084;25.616;2023-10-08T01:17:16;13.40;;;4.15;;
41885;SDS011;27567;43.084;25.616;2023-10-08T01:20:03;8.02;;;4.05;;
41885;SDS011;27567;43.084;25.616;2023-10-08T01:23:08;9.60;;;4.32;;
41885;SDS011;27567;43.084;25.616;2023-10-08T01:25:54;9.48;;;4.50;;
41885;SDS011;27567;43.084;25.616;2023-10-08T01:28:47;9.13;;;4.63;;
41885;SDS011;27567;43.084;25.616;2023-10-08T01:31:31;12.40;;;4.22;;
41885;SDS011;27567;43.084;25.616;2023-10-08T01:34:16;8.77;;;4.13;;
41885;SDS011;27567;43.084;25.616;2023-10-08T01:37:03;8.38;;;4.00;;
41885;SDS011;27567;43.084;25.616;2023-10-08T01:39:52;12.60;;;4.38;;
41885;SDS011;27567;43.084;25.616;2023-10-08T01:42:36;10.15;;;4.20;;
41885;SDS011;27567;43.084;25.616;2023-10-08T01:45:23;8.32;;;4.05;;
41885;SDS011;27567;43.084;25.616;2023-10-08T01:48:08;11.20;;;4.32;;
41885;SDS011;27567;43.084;25.616;2023-10-08T01:50:57;9.32;;;4.65;;
41885;SDS011;27567;43.084;25.616;2023-10-08T01:54:04;8.82;;;4.32;;
41885;SDS011;27567;43.084;25.616;2023-10-08T01:57:08;8.57;;;3.60;;
41885;SDS011;27567;43.084;25.616;2023-10-08T01:59:53;6.63;;;3.40;;
41885;SDS011;27567;43.084;25.616;2023-10-08T02:02:38;8.60;;;4.00;;
41885;SDS011;27567;43.084;25.616;2023-10-08T02:05:24;11.75;;;4.25;;
41885;SDS011;27567;43.084;25.616;2023-10-08T02:08:09;8.95;;;3.90;;
41885;SDS011;27567;43.084;25.616;2023-10-08T02:10:55;6.72;;;3.30;;
41885;SDS011;27567;43.084;25.616;2023-10-08T02:13:39;9.43;;;4.50;;
41885;SDS011;27567;43.084;25.616;2023-10-08T02:16:23;6.72;;;3.15;;
41885;SDS011;27567;43.084;25.616;2023-10-08T02:19:07;9.13;;;3.28;;
41885;SDS011;27567;43.084;25.616;2023-10-08T02:21:54;9.50;;;3.35;;
41885;SDS011;27567;43.084;25.616;2023-10-08T02:24:39;9.80;;;4.18;;
41885;SDS011;27567;43.084;25.616;2023-10-08T02:27:23;7.28;;;3.47;;
41885;SDS011;27567;43.084;25.616;2023-10-08T02:30:09;6.88;;;3.58;;
41885;SDS011;27567;43.084;25.616;2023-10-08T02:32:56;6.35;;;3.60;;
41885;SDS011;27567;43.084;25.616;2023-10-08T02:35:42;8.93;;;3.80;;
41885;SDS011;27567;43.084;25.616;2023-10-08T02:38:27;9.27;;;3.90;;
41885;SDS011;27567;43.084;25.616;2023-10-08T02:41:16;5.80;;;3.40;;
41885;SDS011;27567;43.084;25.616;2023-10-08T02:44:01;6.80;;;3.60;;
41885;SDS011;27567;43.084;25.616;2023-10-08T02:46:49;9.30;;;3.08;;
41885;SDS011;27567;43.084;25.616;2023-10-08T02:49:34;13.73;;;3.78;;
41885;SDS011;27567;43.084;25.616;2023-10-08T02:52:20;7.35;;;3.10;;
41885;SDS011;27567;43.084;25.616;2023-10-08T02:55:04;6.53;;;3.20;;
41885;SDS011;27567;43.084;25.616;2023-10-08T02:57:48;7.25;;;3.10;;
41885;SDS011;27567;43.084;25.616;2023-10-08T03:00:34;7.32;;;3.33;;
41885;SDS011;27567;43.084;25.616;2023-10-08T03:03:19;8.93;;;3.33;;
41885;SDS011;27567;43.084;25.616;2023-10-08T03:06:03;12.38;;;4.05;;
41885;SDS011;27567;43.084;25.616;2023-10-08T03:08:47;7.93;;;3.55;;
41885;SDS011;27567;43.084;25.616;2023-10-08T03:11:31;9.60;;;3.03;;
41885;SDS011;27567;43.084;25.616;2023-10-08T03:14:16;7.82;;;3.50;;
41885;SDS011;27567;43.084;25.616;2023-10-08T03:17:07;9.82;;;2.90;;
41885;SDS011;27567;43.084;25.616;2023-10-08T03:19:51;6.88;;;2.97;;
41885;SDS011;27567;43.084;25.616;2023-10-08T03:22:35;5.50;;;3.15;;
41885;SDS011;27567;43.084;25.616;2023-10-08T03:25:21;7.05;;;2.92;;
41885;SDS011;27567;43.084;25.616;2023-10-08T03:28:08;6.53;;;3.08;;
41885;SDS011;27567;43.084;25.616;2023-10-08T03:30:53;6.72;;;3.10;;
41885;SDS011;27567;43.084;25.616;2023-10-08T03:33:47;8.48;;;3.00;;
41885;SDS011;27567;43.084;25.616;2023-10-08T03:36:35;7.80;;;3.30;;
41885;SDS011;27567;43.084;25.616;2023-10-08T03:39:27;8.15;;;3.30;;
41885;SDS011;27567;43.084;25.616;2023-10-08T03:42:31;6.38;;;3.03;;
41885;SDS011;27567;43.084;25.616;2023-10-08T03:45:24;8.90;;;3.00;;
41885;SDS011;27567;43.084;25.616;2023-10-08T03:48:26;6.13;;;3.33;;
41885;SDS011;27567;43.084;25.616;2023-10-08T03:51:17;5.43;;;2.78;;
41885;SDS011;27567;43.084;25.616;2023-10-08T03:54:05;8.60;;;3.30;;
41885;SDS011;27567;43.084;25.616;2023-10-08T03:56:59;9.30;;;3.65;;
41885;SDS011;27567;43.084;25.616;2023-10-08T03:59:44;7.72;;;3.50;;
41885;SDS011;27567;43.084;25.616;2023-10-08T04:02:32;10.68;;;3.80;;
41885;SDS011;27567;43.084;25.616;2023-10-08T04:05:23;10.48;;;4.35;;
41885;SDS011;27567;43.084;25.616;2023-10-08T04:08:11;10.13;;;3.85;;
41885;SDS011;27567;43.084;25.616;2023-10-08T04:11:03;9.75;;;4.38;;
41885;SDS011;27567;43.084;25.616;2023-10-08T04:14:08;17.42;;;3.95;;
41885;SDS011;27567;43.084;25.616;2023-10-08T04:16:52;10.82;;;4.32;;
41885;SDS011;27567;43.084;25.616;2023-10-08T04:19:36;8.50;;;4.47;;
41885;SDS011;27567;43.084;25.616;2023-10-08T04:22:20;9.85;;;4.38;;
41885;SDS011;27567;43.084;25.616;2023-10-08T04:25:04;11.73;;;4.55;;
41885;SDS011;27567;43.084;25.616;2023-10-08T04:27:49;8.73;;;4.90;;
41885;SDS011;27567;43.084;25.616;2023-10-08T04:30:34;8.88;;;4.35;;
41885;SDS011;27567;43.084;25.616;2023-10-08T04:33:19;8.80;;;4.18;;
41885;SDS011;27567;43.084;25.616;2023-10-08T04:36:03;9.07;;;3.88;;
41885;SDS011;27567;43.084;25.616;2023-10-08T04:38:51;10.77;;;5.20;;
41885;SDS011;27567;43.084;25.616;2023-10-08T04:41:42;9.50;;;4.22;;
41885;SDS011;27567;43.084;25.616;2023-10-08T04:44:28;9.50;;;4.43;;
41885;SDS011;27567;43.084;25.616;2023-10-08T04:47:15;9.15;;;4.38;;
41885;SDS011;27567;43.084;25.616;2023-10-08T04:50:15;10.75;;;4.15;;
41885;SDS011;27567;43.084;25.616;2023-10-08T04:53:01;11.63;;;4.90;;
41885;SDS011;27567;43.084;25.616;2023-10-08T04:55:51;12.37;;;4.63;;
41885;SDS011;27567;43.084;25.616;2023-10-08T04:58:35;9.65;;;4.70;;
41885;SDS011;27567;43.084;25.616;2023-10-08T05:01:24;8.55;;;4.78;;
41885;SDS011;27567;43.084;25.616;2023-10-08T05:04:24;14.73;;;6.18;;
41885;SDS011;27567;43.084;25.616;2023-10-08T05:07:10;11.68;;;4.90;;
41885;SDS011;27567;43.084;25.616;2023-10-08T05:12:54;10.95;;;4.80;;
41885;SDS011;27567;43.084;25.616;2023-10-08T05:15:47;10.60;;;4.55;;
41885;SDS011;27567;43.084;25.616;2023-10-08T05:19:02;11.80;;;4.68;;
41885;SDS011;27567;43.084;25.616;2023-10-08T05:22:06;12.23;;;4.65;;
41885;SDS011;27567;43.084;25.616;2023-10-08T05:25:10;9.43;;;4.75;;
41885;SDS011;27567;43.084;25.616;2023-10-08T05:27:54;13.18;;;4.82;;
41885;SDS011;27567;43.084;25.616;2023-10-08T05:30:38;13.38;;;5.20;;
41885;SDS011;27567;43.084;25.616;2023-10-08T05:33:25;9.88;;;4.07;;
41885;SDS011;27567;43.084;25.616;2023-10-08T05:36:11;11.32;;;4.97;;
41885;SDS011;27567;43.084;25.616;2023-10-08T05:39:02;15.60;;;3.90;;
41885;SDS011;27567;43.084;25.616;2023-10-08T05:42:09;13.45;;;4.70;;
41885;SDS011;27567;43.084;25.616;2023-10-08T05:45:26;7.63;;;4.22;;
41885;SDS011;27567;43.084;25.616;2023-10-08T05:48:13;7.15;;;4.25;;
41885;SDS011;27567;43.084;25.616;2023-10-08T05:51:05;11.52;;;4.32;;
41885;SDS011;27567;43.084;25.616;2023-10-08T05:53:57;11.50;;;4.50;;
41885;SDS011;27567;43.084;25.616;2023-10-08T05:56:41;11.45;;;4.30;;
41885;SDS011;27567;43.084;25.616;2023-10-08T05:59:48;9.93;;;4.20;;
41885;SDS011;27567;43.084;25.616;2023-10-08T06:02:42;9.88;;;3.88;;
41885;SDS011;27567;43.084;25.616;2023-10-08T06:05:29;9.52;;;4.13;;
41885;SDS011;27567;43.084;25.616;2023-10-08T06:08:16;7.50;;;3.10;;
41885;SDS011;27567;43.084;25.616;2023-10-08T06:11:20;10.70;;;4.18;;
41885;SDS011;27567;43.084;25.616;2023-10-08T06:14:23;8.27;;;4.18;;
41885;SDS011;27567;43.084;25.616;2023-10-08T06:17:26;7.38;;;4.18;;
41885;SDS011;27567;43.084;25.616;2023-10-08T06:23:23;9.13;;;4.00;;
41885;SDS011;27567;43.084;25.616;2023-10-08T06:26:07;8.20;;;4.03;;
41885;SDS011;27567;43.084;25.616;2023-10-08T06:28:54;9.18;;;3.75;;
41885;SDS011;27567;43.084;25.616;2023-10-08T06:31:41;7.32;;;3.50;;
41885;SDS011;27567;43.084;25.616;2023-10-08T06:34:30;6.90;;;3.78;;
41885;SDS011;27567;43.084;25.616;2023-10-08T06:37:14;7.28;;;3.42;;
41885;SDS011;27567;43.084;25.616;2023-10-08T06:39:59;12.75;;;3.75;;
41885;SDS011;27567;43.084;25.616;2023-10-08T06:42:44;6.50;;;3.47;;
41885;SDS011;27567;43.084;25.616;2023-10-08T06:45:28;10.02;;;3.78;;
41885;SDS011;27567;43.084;25.616;2023-10-08T06:48:14;7.45;;;3.85;;
41885;SDS011;27567;43.084;25.616;2023-10-08T06:51:02;8.77;;;3.70;;
41885;SDS011;27567;43.084;25.616;2023-10-08T06:53:56;9.32;;;3.65;;
41885;SDS011;27567;43.084;25.616;2023-10-08T06:56:45;9.43;;;3.22;;
41885;SDS011;27567;43.084;25.616;2023-10-08T06:59:35;7.30;;;3.55;;
41885;SDS011;27567;43.084;25.616;2023-10-08T07:02:26;8.40;;;3.55;;
41885;SDS011;27567;43.084;25.616;2023-10-08T07:05:10;7.47;;;3.25;;
41885;SDS011;27567;43.084;25.616;2023-10-08T07:07:55;13.38;;;3.22;;
41885;SDS011;27567;43.084;25.616;2023-10-08T07:10:39;9.15;;;3.20;;
41885;SDS011;27567;43.084;25.616;2023-10-08T07:13:27;5.65;;;3.13;;
41885;SDS011;27567;43.084;25.616;2023-10-08T07:16:12;6.57;;;3.60;;
41885;SDS011;27567;43.084;25.616;2023-10-08T07:19:00;7.40;;;3.72;;
41885;SDS011;27567;43.084;25.616;2023-10-08T07:21:59;13.32;;;4.28;;
41885;SDS011;27567;43.084;25.616;2023-10-08T07:24:50;13.68;;;3.60;;
41885;SDS011;27567;43.084;25.616;2023-10-08T07:27:37;10.25;;;4.25;;
41885;SDS011;27567;43.084;25.616;2023-10-08T07:30:21;6.43;;;3.58;;
41885;SDS011;27567;43.084;25.616;2023-10-08T07:33:10;7.95;;;3.50;;
41885;SDS011;27567;43.084;25.616;2023-10-08T07:36:01;10.88;;;3.33;;
41885;SDS011;27567;43.084;25.616;2023-10-08T07:38:55;20.42;;;3.45;;
41885;SDS011;27567;43.084;25.616;2023-10-08T07:41:39;12.10;;;3.30;;
41885;SDS011;27567;43.084;25.616;2023-10-08T07:44:23;8.88;;;3.10;;
41885;SDS011;27567;43.084;25.616;2023-10-08T07:47:08;10.20;;;3.30;;
41885;SDS011;27567;43.084;25.616;2023-10-08T07:49:55;7.90;;;3.30;;
41885;SDS011;27567;43.084;25.616;2023-10-08T07:52:40;9.45;;;3.28;;
41885;SDS011;27567;43.084;25.616;2023-10-08T07:55:27;7.45;;;3.28;;
41885;SDS011;27567;43.084;25.616;2023-10-08T07:58:12;12.23;;;3.20;;
41885;SDS011;27567;43.084;25.616;2023-10-08T08:01:02;14.57;;;3.83;;
41885;SDS011;27567;43.084;25.616;2023-10-08T08:03:50;8.75;;;3.17;;
41885;SDS011;27567;43.084;25.616;2023-10-08T08:06:35;22.02;;;3.88;;
41885;SDS011;27567;43.084;25.616;2023-10-08T08:09:20;31.70;;;4.43;;
41885;SDS011;27567;43.084;25.616;2023-10-08T08:14:39;27.50;;;4.07;;
41885;SDS011;27567;43.084;25.616;2023-10-08T08:17:25;12.55;;;3.17;;
41885;SDS011;27567;43.084;25.616;2023-10-08T08:20:10;10.93;;;3.30;;
41885;SDS011;27567;43.084;25.616;2023-10-08T08:23:18;6.75;;;3.00;;
41885;SDS011;27567;43.084;25.616;2023-10-08T08:26:05;18.55;;;3.65;;
41885;SDS011;27567;43.084;25.616;2023-10-08T08:29:09;20.25;;;3.22;;
41885;SDS011;27567;43.084;25.616;2023-10-08T08:31:58;11.80;;;3.35;;
41885;SDS011;27567;43.084;25.616;2023-10-08T08:34:47;13.82;;;2.92;;
41885;SDS011;27567;43.084;25.616;2023-10-08T08:37:34;37.80;;;5.03;;
41885;SDS011;27567;43.084;25.616;2023-10-08T08:40:25;10.75;;;3.10;;
41885;SDS011;27567;43.084;25.616;2023-10-08T08:43:10;14.52;;;3.08;;
41885;SDS011;27567;43.084;25.616;2023-10-08T08:48:55;15.82;;;3.17;;
41885;SDS011;27567;43.084;25.616;2023-10-08T08:51:41;27.60;;;4.15;;
41885;SDS011;27567;43.084;25.616;2023-10-08T08:54:27;29.17;;;4.85;;
41885;SDS011;27567;43.084;25.616;2023-10-08T08:57:14;10.68;;;2.88;;
41885;SDS011;27567;43.084;25.616;2023-10-08T09:00:01;12.88;;;3.47;;
41885;SDS011;27567;43.084;25.616;2023-10-08T09:02:52;13.32;;;3.65;;
41885;SDS011;27567;43.084;25.616;2023-10-08T09:05:37;29.08;;;4.00;;
41885;SDS011;27567;43.084;25.616;2023-10-08T09:08:37;42.17;;;5.38;;
41885;SDS011;27567;43.084;25.616;2023-10-08T09:11:25;24.92;;;4.40;;
41885;SDS011;27567;43.084;25.616;2023-10-08T09:14:10;11.05;;;2.85;;
41885;SDS011;27567;43.084;25.616;2023-10-08T09:16:54;10.07;;;2.78;;
41885;SDS011;27567;43.084;25.616;2023-10-08T09:19:38;12.65;;;3.05;;
41885;SDS011;27567;43.084;25.616;2023-10-08T09:22:23;11.75;;;3.00;;
41885;SDS011;27567;43.084;25.616;2023-10-08T09:25:07;13.80;;;3.20;;
41885;SDS011;27567;43.084;25.616;2023-10-08T09:27:55;23.02;;;3.17;;
41885;SDS011;27567;43.084;25.616;2023-10-08T09:30:39;27.08;;;4.40;;
41885;SDS011;27567;43.084;25.616;2023-10-08T09:33:23;14.45;;;2.80;;
41885;SDS011;27567;43.084;25.616;2023-10-08T09:36:08;23.33;;;3.20;;
41885;SDS011;27567;43.084;25.616;2023-10-08T09:38:54;25.10;;;4.07;;
41885;SDS011;27567;43.084;25.616;2023-10-08T09:41:39;11.55;;;3.10;;
41885;SDS011;27567;43.084;25.616;2023-10-08T09:44:25;12.82;;;3.05;;
41885;SDS011;27567;43.084;25.616;2023-10-08T09:47:09;12.90;;;3.25;;
41885;SDS011;27567;43.084;25.616;2023-10-08T09:49:57;15.40;;;3.63;;
41885;SDS011;27567;43.084;25.616;2023-10-08T09:53:04;11.98;;;3.72;;
41885;SDS011;27567;43.084;25.616;2023-10-08T09:55:55;14.05;;;3.58;;
41885;SDS011;27567;43.084;25.616;2023-10-08T09:58:40;11.63;;;3.33;;
41885;SDS011;27567;43.084;25.616;2023-10-08T10:01:26;17.90;;;3.92;;
41885;SDS011;27567;43.084;25.616;2023-10-08T10:04:11;16.20;;;3.42;;
41885;SDS011;27567;43.084;25.616;2023-10-08T10:06:56;13.55;;;3.10;;
41885;SDS011;27567;43.084;25.616;2023-10-08T10:09:43;19.40;;;4.28;;
41885;SDS011;27567;43.084;25.616;2023-10-08T10:12:30;16.13;;;3.47;;
41885;SDS011;27567;43.084;25.616;2023-10-08T10:15:14;12.10;;;3.38;;
41885;SDS011;27567;43.084;25.616;2023-10-08T10:23:56;17.58;;;4.03;;
41885;SDS011;27567;43.084;25.616;2023-10-08T10:26:40;8.38;;;3.28;;
41885;SDS011;27567;43.084;25.616;2023-10-08T10:29:28;39.20;;;5.35;;
41885;SDS011;27567;43.084;25.616;2023-10-08T10:32:16;18.20;;;3.78;;
41885;SDS011;27567;43.084;25.616;2023-10-08T10:35:00;10.20;;;3.17;;
41885;SDS011;27567;43.084;25.616;2023-10-08T10:37:47;22.73;;;3.33;;
41885;SDS011;27567;43.084;25.616;2023-10-08T10:40:35;12.13;;;3.28;;
41885;SDS011;27567;43.084;25.616;2023-10-08T10:43:26;9.52;;;3.05;;
41885;SDS011;27567;43.084;25.616;2023-10-08T10:46:17;14.00;;;2.97;;
41885;SDS011;27567;43.084;25.616;2023-10-08T10:49:24;13.60;;;3.47;;
41885;SDS011;27567;43.084;25.616;2023-10-08T10:52:15;8.32;;;3.50;;
41885;SDS011;27567;43.084;25.616;2023-10-08T10:55:10;13.60;;;3.10;;
41885;SDS011;27567;43.084;25.616;2023-10-08T10:57:59;25.85;;;3.75;;
41885;SDS011;27567;43.084;25.616;2023-10-08T11:00:48;17.15;;;3.90;;
41885;SDS011;27567;43.084;25.616;2023-10-08T11:03:33;9.98;;;3.08;;
41885;SDS011;27567;43.084;25.616;2023-10-08T11:06:19;13.93;;;3.22;;
41885;SDS011;27567;43.084;25.616;2023-10-08T11:09:07;10.75;;;3.15;;
41885;SDS011;27567;43.084;25.616;2023-10-08T11:11:58;16.35;;;4.45;;
41885;SDS011;27567;43.084;25.616;2023-10-08T11:14:46;9.48;;;3.17;;
41885;SDS011;27567;43.084;25.616;2023-10-08T11:17:31;11.50;;;4.05;;
41885;SDS011;27567;43.084;25.616;2023-10-08T11:20:24;26.25;;;4.00;;
41885;SDS011;27567;43.084;25.616;2023-10-08T11:23:09;22.92;;;4.35;;
41885;SDS011;27567;43.084;25.616;2023-10-08T11:26:02;17.02;;;3.58;;
41885;SDS011;27567;43.084;25.616;2023-10-08T11:28:47;13.07;;;3.78;;
41885;SDS011;27567;43.084;25.616;2023-10-08T11:31:31;9.18;;;3.38;;
41885;SDS011;27567;43.084;25.616;2023-10-08T11:34:18;15.13;;;3.83;;
41885;SDS011;27567;43.084;25.616;2023-10-08T11:37:07;21.67;;;3.80;;
41885;SDS011;27567;43.084;25.616;2023-10-08T11:40:03;17.35;;;3.00;;
41885;SDS011;27567;43.084;25.616;2023-10-08T11:43:01;20.90;;;3.50;;
41885;SDS011;27567;43.084;25.616;2023-10-08T11:45:47;24.98;;;4.28;;
41885;SDS011;27567;43.084;25.616;2023-10-08T11:48:34;28.95;;;4.15;;
41885;SDS011;27567;43.084;25.616;2023-10-08T11:51:22;14.05;;;4.15;;
41885;SDS011;27567;43.084;25.616;2023-10-08T11:54:07;14.23;;;3.47;;
41885;SDS011;27567;43.084;25.616;2023-10-08T11:56:55;16.13;;;3.88;;
41885;SDS011;27567;43.084;25.616;2023-10-08T11:59:40;27.63;;;3.80;;
41885;SDS011;27567;43.084;25.616;2023-10-08T12:02:24;15.38;;;3.67;;
41885;SDS011;27567;43.084;25.616;2023-10-08T12:05:10;26.65;;;4.05;;
41885;SDS011;27567;43.084;25.616;2023-10-08T12:08:02;20.60;;;5.43;;
41885;SDS011;27567;43.084;25.616;2023-10-08T12:10:46;16.70;;;3.90;;
41885;SDS011;27567;43.084;25.616;2023-10-08T12:13:31;26.48;;;4.18;;
41885;SDS011;27567;43.084;25.616;2023-10-08T12:16:16;18.65;;;4.10;;
41885;SDS011;27567;43.084;25.616;2023-10-08T12:19:06;17.70;;;3.72;;
41885;SDS011;27567;43.084;25.616;2023-10-08T12:21:59;13.52;;;3.53;;
41885;SDS011;27567;43.084;25.616;2023-10-08T12:24:46;13.80;;;3.03;;
41885;SDS011;27567;43.084;25.616;2023-10-08T12:27:30;10.40;;;3.45;;
41885;SDS011;27567;43.084;25.616;2023-10-08T12:30:14;28.67;;;4.45;;
41885;SDS011;27567;43.084;25.616;2023-10-08T12:32:58;22.90;;;3.90;;
41885;SDS011;27567;43.084;25.616;2023-10-08T12:35:43;11.75;;;4.18;;
41885;SDS011;27567;43.084;25.616;2023-10-08T12:38:28;13.82;;;3.30;;
41885;SDS011;27567;43.084;25.616;2023-10-08T12:41:12;17.30;;;3.55;;
41885;SDS011;27567;43.084;25.616;2023-10-08T12:43:56;24.25;;;4.95;;
41885;SDS011;27567;43.084;25.616;2023-10-08T12:46:41;24.52;;;4.20;;
41885;SDS011;27567;43.084;25.616;2023-10-08T12:49:27;18.58;;;4.57;;
41885;SDS011;27567;43.084;25.616;2023-10-08T12:52:17;21.58;;;4.25;;
41885;SDS011;27567;43.084;25.616;2023-10-08T12:55:01;20.45;;;5.30;;
41885;SDS011;27567;43.084;25.616;2023-10-08T12:57:48;15.88;;;4.68;;
41885;SDS011;27567;43.084;25.616;2023-10-08T13:00:38;16.48;;;4.63;;
41885;SDS011;27567;43.084;25.616;2023-10-08T13:03:25;11.65;;;3.35;;
41885;SDS011;27567;43.084;25.616;2023-10-08T13:06:21;9.88;;;3.25;;
41885;SDS011;27567;43.084;25.616;2023-10-08T13:09:14;7.28;;;3.03;;
41885;SDS011;27567;43.084;25.616;2023-10-08T13:11:58;17.23;;;3.88;;
41885;SDS011;27567;43.084;25.616;2023-10-08T13:14:47;34.70;;;3.85;;
41885;SDS011;27567;43.084;25.616;2023-10-08T13:17:32;16.65;;;3.70;;
41885;SDS011;27567;43.084;25.616;2023-10-08T13:20:16;15.52;;;3.83;;
41885;SDS011;27567;43.084;25.616;2023-10-08T13:23:01;20.90;;;6.95;;
41885;SDS011;27567;43.084;25.616;2023-10-08T13:25:45;22.92;;;6.13;;
41885;SDS011;27567;43.084;25.616;2023-10-08T13:28:30;34.45;;;6.15;;
41885;SDS011;27567;43.084;25.616;2023-10-08T13:31:17;21.33;;;4.50;;
41885;SDS011;27567;43.084;25.616;2023-10-08T13:34:02;18.63;;;3.85;;
41885;SDS011;27567;43.084;25.616;2023-10-08T13:36:56;20.13;;;4.10;;
41885;SDS011;27567;43.084;25.616;2023-10-08T13:39:40;13.55;;;3.28;;
41885;SDS011;27567;43.084;25.616;2023-10-08T13:42:24;16.63;;;3.22;;
41885;SDS011;27567;43.084;25.616;2023-10-08T13:45:10;44.10;;;5.35;;
41885;SDS011;27567;43.084;25.616;2023-10-08T13:48:09;36.15;;;4.43;;
41885;SDS011;27567;43.084;25.616;2023-10-08T13:51:01;22.60;;;4.25;;
41885;SDS011;27567;43.084;25.616;2023-10-08T13:53:48;21.45;;;3.58;;
41885;SDS011;27567;43.084;25.616;2023-10-08T13:56:38;15.80;;;3.17;;
41885;SDS011;27567;43.084;25.616;2023-10-08T13:59:25;10.80;;;3.63;;
41885;SDS011;27567;43.084;25.616;2023-10-08T14:02:10;19.42;;;3.25;;
41885;SDS011;27567;43.084;25.616;2023-10-08T14:05:03;25.30;;;4.25;;
41885;SDS011;27567;43.084;25.616;2023-10-08T14:07:52;19.20;;;4.28;;
41885;SDS011;27567;43.084;25.616;2023-10-08T14:10:37;34.95;;;4.53;;
41885;SDS011;27567;43.084;25.616;2023-10-08T14:13:21;29.80;;;4.43;;
41885;SDS011;27567;43.084;25.616;2023-10-08T14:16:04;20.27;;;4.43;;
41885;SDS011;27567;43.084;25.616;2023-10-08T14:18:55;32.33;;;5.32;;
41885;SDS011;27567;43.084;25.616;2023-10-08T14:21:43;20.55;;;4.95;;
41885;SDS011;27567;43.084;25.616;2023-10-08T14:24:37;17.73;;;5.00;;
41885;SDS011;27567;43.084;25.616;2023-10-08T14:27:21;31.00;;;8.98;;
41885;SDS011;27567;43.084;25.616;2023-10-08T14:30:10;33.78;;;8.43;;
41885;SDS011;27567;43.084;25.616;2023-10-08T14:33:04;24.73;;;8.18;;
41885;SDS011;27567;43.084;25.616;2023-10-08T14:35:52;26.35;;;5.90;;
41885;SDS011;27567;43.084;25.616;2023-10-08T14:38:55;33.00;;;6.68;;
41885;SDS011;27567;43.084;25.616;2023-10-08T14:45:44;30.42;;;7.38;;
41885;SDS011;27567;43.084;25.616;2023-10-08T14:48:31;17.35;;;6.32;;
41885;SDS011;27567;43.084;25.616;2023-10-08T14:51:18;47.42;;;8.35;;
41885;SDS011;27567;43.084;25.616;2023-10-08T14:54:02;25.65;;;7.97;;
41885;SDS011;27567;43.084;25.616;2023-10-08T14:56:47;25.13;;;6.85;;
41885;SDS011;27567;43.084;25.616;2023-10-08T14:59:33;19.52;;;5.00;;
41885;SDS011;27567;43.084;25.616;2023-10-08T15:02:17;24.98;;;5.15;;
41885;SDS011;27567;43.084;25.616;2023-10-08T15:05:01;29.42;;;4.50;;
41885;SDS011;27567;43.084;25.616;2023-10-08T15:07:46;23.52;;;3.50;;
41885;SDS011;27567;43.084;25.616;2023-10-08T15:10:30;24.75;;;4.53;;
41885;SDS011;27567;43.084;25.616;2023-10-08T15:13:14;20.75;;;3.97;;
41885;SDS011;27567;43.084;25.616;2023-10-08T15:15:59;24.67;;;6.00;;
41885;SDS011;27567;43.084;25.616;2023-10-08T15:18:48;31.77;;;5.38;;
41885;SDS011;27567;43.084;25.616;2023-10-08T15:21:40;19.30;;;4.22;;
41885;SDS011;27567;43.084;25.616;2023-10-08T15:24:24;18.70;;;4.60;;
41885;SDS011;27567;43.084;25.616;2023-10-08T15:27:08;15.73;;;4.60;;
41885;SDS011;27567;43.084;25.616;2023-10-08T15:29:55;14.15;;;4.30;;
41885;SDS011;27567;43.084;25.616;2023-10-08T15:32:39;19.85;;;4.70;;
41885;SDS011;27567;43.084;25.616;2023-10-08T15:35:23;23.20;;;4.22;;
41885;SDS011;27567;43.084;25.616;2023-10-08T15:38:08;27.67;;;5.38;;
41885;SDS011;27567;43.084;25.616;2023-10-08T15:40:52;17.25;;;3.97;;
41885;SDS011;27567;43.084;25.616;2023-10-08T15:43:38;23.83;;;4.60;;
41885;SDS011;27567;43.084;25.616;2023-10-08T15:46:22;15.57;;;3.63;;
41885;SDS011;27567;43.084;25.616;2023-10-08T15:49:06;26.20;;;5.32;;
41885;SDS011;27567;43.084;25.616;2023-10-08T15:51:50;22.20;;;4.82;;
41885;SDS011;27567;43.084;25.616;2023-10-08T15:54:34;22.17;;;4.57;;
41885;SDS011;27567;43.084;25.616;2023-10-08T15:57:18;29.20;;;7.10;;
41885;SDS011;27567;43.084;25.616;2023-10-08T16:00:02;23.80;;;6.47;;
41885;SDS011;27567;43.084;25.616;2023-10-08T16:02:47;21.45;;;7.35;;
41885;SDS011;27567;43.084;25.616;2023-10-08T16:05:32;26.67;;;8.23;;
41885;SDS011;27567;43.084;25.616;2023-10-08T16:08:17;35.45;;;8.15;;
41885;SDS011;27567;43.084;25.616;2023-10-08T16:11:01;29.35;;;8.65;;
41885;SDS011;27567;43.084;25.616;2023-10-08T16:13:45;28.20;;;7.28;;
41885;SDS011;27567;43.084;25.616;2023-10-08T16:16:28;26.33;;;6.88;;
41885;SDS011;27567;43.084;25.616;2023-10-08T16:19:13;19.95;;;6.35;;
41885;SDS011;27567;43.084;25.616;2023-10-08T16:21:59;22.98;;;5.63;;
41885;SDS011;27567;43.084;25.616;2023-10-08T16:24:43;22.80;;;5.60;;
41885;SDS011;27567;43.084;25.616;2023-10-08T16:27:27;15.50;;;4.72;;
41885;SDS011;27567;43.084;25.616;2023-10-08T16:30:11;12.95;;;5.38;;
41885;SDS011;27567;43.084;25.616;2023-10-08T16:32:59;16.75;;;5.95;;
41885;SDS011;27567;43.084;25.616;2023-10-08T16:35:45;27.13;;;7.13;;
41885;SDS011;27567;43.084;25.616;2023-10-08T16:38:37;19.13;;;5.78;;
41885;SDS011;27567;43.084;25.616;2023-10-08T16:41:21;18.92;;;5.10;;
41885;SDS011;27567;43.084;25.616;2023-10-08T16:44:05;10.45;;;3.88;;
41885;SDS011;27567;43.084;25.616;2023-10-08T16:46:49;26.25;;;5.00;;
41885;SDS011;27567;43.084;25.616;2023-10-08T16:49:35;10.55;;;2.92;;
41885;SDS011;27567;43.084;25.616;2023-10-08T16:52:19;16.25;;;4.05;;